createdAt,value
2023-02-25T00:00:16.331Z,998.11
2023-02-25T00:01:16.322Z,998.17
2023-02-25T00:02:16.345Z,998.14
2023-02-25T00:03:16.342Z,998.11
2023-02-25T00:04:16.299Z,998.09
2023-02-25T00:05:16.273Z,998.16
2023-02-25T00:06:16.284Z,998.17
2023-02-25T00:07:16.270Z,998.14
2023-02-25T00:08:16.286Z,998.11
2023-02-25T00:09:16.232Z,998.13
2023-02-25T00:10:16.235Z,998.14
2023-02-25T00:11:16.211Z,998.07
2023-02-25T00:12:16.210Z,998.02
2023-02-25T00:13:18.368Z,998.02
2023-02-25T00:14:16.174Z,998.04
2023-02-25T00:15:16.172Z,998.08
2023-02-25T00:16:16.213Z,998.14
2023-02-25T00:17:23.253Z,998.14
2023-02-25T00:18:16.127Z,998.10
2023-02-25T00:19:16.118Z,998.12
2023-02-25T00:20:16.101Z,998.13
2023-02-25T00:21:16.095Z,998.04
2023-02-25T00:22:16.101Z,998.12
2023-02-25T00:23:16.093Z,998.14
2023-02-25T00:24:17.170Z,998.10
2023-02-25T00:25:16.060Z,998.12
2023-02-25T00:26:16.043Z,998.08
2023-02-25T00:27:16.029Z,998.11
2023-02-25T00:28:16.047Z,998.12
2023-02-25T00:29:16.005Z,998.13
2023-02-25T00:30:16.006Z,998.13
2023-02-25T00:31:16.128Z,998.08
2023-02-25T00:32:16.166Z,998.12
2023-02-25T00:33:15.972Z,998.12
2023-02-25T00:34:15.977Z,998.15
2023-02-25T00:35:15.952Z,998.18
2023-02-25T00:36:15.958Z,998.19
2023-02-25T00:37:15.958Z,998.23
2023-02-25T00:38:16.371Z,998.20
2023-02-25T00:39:15.962Z,998.24
2023-02-25T00:40:15.913Z,998.24
2023-02-25T00:41:15.875Z,998.23
2023-02-25T00:42:15.867Z,998.22
2023-02-25T00:43:15.878Z,998.22
2023-02-25T00:44:15.887Z,998.22
2023-02-25T00:45:15.837Z,998.31
2023-02-25T00:46:15.918Z,998.25
2023-02-25T00:47:15.818Z,998.28
2023-02-25T00:48:15.803Z,998.28
2023-02-25T00:49:31.427Z,998.23
2023-02-25T00:50:16.858Z,998.22
2023-02-25T00:51:15.764Z,998.20
2023-02-25T00:52:15.766Z,998.21
2023-02-25T00:53:15.744Z,998.17
2023-02-25T00:54:15.743Z,998.22
2023-02-25T00:55:15.729Z,998.30
2023-02-25T00:56:15.802Z,998.27
2023-02-25T00:57:15.700Z,998.27
2023-02-25T00:58:15.705Z,998.24
2023-02-25T00:59:15.676Z,998.27
2023-02-25T01:00:15.688Z,998.29
2023-02-25T01:01:15.748Z,998.36
2023-02-25T01:02:15.653Z,998.32
2023-02-25T01:03:15.634Z,998.34
2023-02-25T01:04:15.622Z,998.32
2023-02-25T01:05:15.624Z,998.34
2023-02-25T01:06:15.612Z,998.39
2023-02-25T01:07:15.585Z,998.37
2023-02-25T01:08:15.581Z,998.37
2023-02-25T01:09:15.595Z,998.44
2023-02-25T01:10:15.555Z,998.42
2023-02-25T01:11:15.552Z,998.51
2023-02-25T01:12:15.561Z,998.50
2023-02-25T01:13:15.522Z,998.57
2023-02-25T01:14:15.518Z,998.55
2023-02-25T01:15:15.501Z,998.55
2023-02-25T01:16:15.593Z,998.57
2023-02-25T01:17:15.476Z,998.46
2023-02-25T01:18:15.491Z,998.47
2023-02-25T01:19:15.472Z,998.53
2023-02-25T01:20:15.440Z,998.50
2023-02-25T01:21:15.460Z,998.47
2023-02-25T01:22:15.431Z,998.46
2023-02-25T01:23:15.410Z,998.46
2023-02-25T01:24:15.407Z,998.48
2023-02-25T01:25:15.390Z,998.45
2023-02-25T01:26:15.381Z,998.52
2023-02-25T01:27:15.372Z,998.50
2023-02-25T01:28:15.384Z,998.55
2023-02-25T01:29:15.341Z,998.54
2023-02-25T01:30:15.329Z,998.50
2023-02-25T01:31:15.533Z,998.50
2023-02-25T01:32:15.509Z,998.53
2023-02-25T01:33:15.299Z,998.42
2023-02-25T01:34:15.285Z,998.49
2023-02-25T01:35:15.276Z,998.48
2023-02-25T01:36:15.275Z,998.50
2023-02-25T01:37:15.269Z,998.53
2023-02-25T01:38:15.247Z,998.53
2023-02-25T01:39:15.232Z,998.62
2023-02-25T01:40:15.223Z,998.50
2023-02-25T01:41:15.207Z,998.51
2023-02-25T01:42:15.213Z,998.49
2023-02-25T01:43:15.203Z,998.50
2023-02-25T01:44:15.206Z,998.49
2023-02-25T01:45:15.183Z,998.47
2023-02-25T01:46:15.180Z,998.49
2023-02-25T01:47:15.183Z,998.53
2023-02-25T01:48:15.149Z,998.48
2023-02-25T01:49:15.121Z,998.51
2023-02-25T01:50:15.128Z,998.49
2023-02-25T01:51:15.108Z,998.53
2023-02-25T01:52:15.094Z,998.48
2023-02-25T01:53:15.102Z,998.43
2023-02-25T01:54:15.085Z,998.44
2023-02-25T01:55:15.067Z,998.48
2023-02-25T01:56:15.048Z,998.48
2023-02-25T01:57:15.075Z,998.52
2023-02-25T01:58:15.027Z,998.50
2023-02-25T01:59:15.028Z,998.45
2023-02-25T02:00:15.027Z,998.47
2023-02-25T02:01:15.178Z,998.62
2023-02-25T02:02:15.030Z,998.47
2023-02-25T02:03:14.972Z,998.58
2023-02-25T02:04:14.964Z,998.50
2023-02-25T02:05:14.959Z,998.53
2023-02-25T02:06:14.940Z,998.57
2023-02-25T02:07:14.930Z,998.50
2023-02-25T02:08:14.920Z,998.50
2023-02-25T02:09:14.918Z,998.46
2023-02-25T02:10:14.909Z,998.35
2023-02-25T02:11:14.895Z,998.40
2023-02-25T02:12:14.872Z,998.38
2023-02-25T02:13:14.862Z,998.39
2023-02-25T02:14:14.851Z,998.41
2023-02-25T02:15:14.850Z,998.42
2023-02-25T02:16:14.913Z,998.37
2023-02-25T02:17:14.826Z,998.42
2023-02-25T02:18:14.818Z,998.38
2023-02-25T02:19:14.792Z,998.41
2023-02-25T02:20:14.804Z,998.39
2023-02-25T02:21:14.775Z,998.43
2023-02-25T02:22:14.761Z,998.35
2023-02-25T02:23:14.794Z,998.27
2023-02-25T02:24:14.742Z,998.39
2023-02-25T02:25:14.790Z,998.42
2023-02-25T02:26:14.713Z,998.43
2023-02-25T02:27:14.854Z,998.45
2023-02-25T02:28:14.695Z,998.43
2023-02-25T02:29:14.679Z,998.44
2023-02-25T02:30:14.685Z,998.41
2023-02-25T02:31:14.845Z,998.41
2023-02-25T02:32:14.897Z,998.35
2023-02-25T02:33:14.652Z,998.44
2023-02-25T02:34:14.633Z,998.41
2023-02-25T02:35:14.621Z,998.42
2023-02-25T02:36:14.612Z,998.43
2023-02-25T02:37:14.614Z,998.38
2023-02-25T02:38:14.605Z,998.44
2023-02-25T02:39:14.579Z,998.38
2023-02-25T02:40:14.583Z,998.32
2023-02-25T02:41:14.545Z,998.39
2023-02-25T02:42:14.547Z,998.41
2023-02-25T02:43:14.524Z,998.38
2023-02-25T02:44:14.518Z,998.40
2023-02-25T02:45:14.530Z,998.39
2023-02-25T02:46:14.545Z,998.48
2023-02-25T02:47:14.479Z,998.41
2023-02-25T02:48:14.517Z,998.49
2023-02-25T02:49:14.455Z,998.46
2023-02-25T02:50:14.458Z,998.36
2023-02-25T02:51:14.449Z,998.44
2023-02-25T02:52:14.425Z,998.42
2023-02-25T02:53:14.410Z,998.43
2023-02-25T02:54:14.431Z,998.40
2023-02-25T02:55:14.391Z,998.41
2023-02-25T02:56:14.388Z,998.47
2023-02-25T02:57:14.382Z,998.48
2023-02-25T02:58:14.368Z,998.45
2023-02-25T02:59:14.414Z,998.49
2023-02-25T03:00:14.342Z,998.51
2023-02-25T03:01:14.415Z,998.53
2023-02-25T03:02:14.311Z,998.50
2023-02-25T03:03:14.297Z,998.59
2023-02-25T03:04:14.437Z,998.51
2023-02-25T03:05:14.280Z,998.66
2023-02-25T03:06:14.269Z,998.62
2023-02-25T03:07:14.282Z,998.58
2023-02-25T03:08:14.243Z,998.51
2023-02-25T03:09:14.238Z,998.57
2023-02-25T03:10:14.249Z,998.55
2023-02-25T03:11:14.236Z,998.62
2023-02-25T03:12:14.200Z,998.58
2023-02-25T03:13:14.192Z,998.53
2023-02-25T03:14:14.188Z,998.62
2023-02-25T03:15:14.175Z,998.57
2023-02-25T03:16:14.195Z,998.58
2023-02-25T03:17:14.171Z,998.65
2023-02-25T03:18:14.137Z,998.60
2023-02-25T03:19:14.139Z,998.60
2023-02-25T03:20:14.203Z,998.70
2023-02-25T03:21:14.100Z,998.61
2023-02-25T03:22:14.114Z,998.62
2023-02-25T03:23:14.099Z,998.68
2023-02-25T03:24:14.107Z,998.74
2023-02-25T03:25:14.076Z,998.70
2023-02-25T03:26:14.081Z,998.70
2023-02-25T03:27:14.051Z,998.73
2023-02-25T03:28:14.037Z,998.69
2023-02-25T03:29:14.016Z,998.74
2023-02-25T03:30:14.018Z,998.76
2023-02-25T03:31:13.997Z,998.78
2023-02-25T03:32:14.175Z,998.80
2023-02-25T03:33:13.976Z,998.79
2023-02-25T03:34:14.010Z,998.79
2023-02-25T03:35:13.962Z,998.80
2023-02-25T03:36:13.982Z,998.81
2023-02-25T03:37:13.946Z,998.79
2023-02-25T03:38:13.947Z,998.82
2023-02-25T03:39:13.909Z,998.85
2023-02-25T03:40:13.909Z,998.75
2023-02-25T03:41:13.890Z,998.79
2023-02-25T03:42:13.879Z,998.84
2023-02-25T03:43:13.878Z,998.89
2023-02-25T03:44:13.862Z,998.87
2023-02-25T03:45:13.855Z,998.94
2023-02-25T03:46:13.858Z,998.96
2023-02-25T03:47:13.835Z,998.93
2023-02-25T03:48:13.815Z,998.98
2023-02-25T03:49:13.805Z,998.94
2023-02-25T03:50:13.803Z,998.95
2023-02-25T03:51:13.775Z,998.97
2023-02-25T03:52:13.789Z,999.01
2023-02-25T03:53:13.782Z,999.01
2023-02-25T03:54:13.748Z,999.00
2023-02-25T03:55:13.744Z,999.07
2023-02-25T03:56:13.730Z,999.04
2023-02-25T03:57:13.708Z,999.05
2023-02-25T03:58:13.710Z,999.11
2023-02-25T03:59:13.687Z,999.09
2023-02-25T04:00:13.686Z,999.14
2023-02-25T04:01:16.721Z,999.14
2023-02-25T04:02:13.693Z,999.11
2023-02-25T04:03:13.657Z,999.10
2023-02-25T04:04:13.665Z,999.10
2023-02-25T04:05:13.626Z,999.06
2023-02-25T04:06:13.623Z,999.06
2023-02-25T04:07:13.596Z,999.05
2023-02-25T04:08:13.616Z,999.04
2023-02-25T04:09:13.582Z,999.00
2023-02-25T04:10:13.582Z,999.01
2023-02-25T04:11:13.550Z,999.05
2023-02-25T04:12:13.559Z,999.05
2023-02-25T04:13:13.551Z,999.14
2023-02-25T04:14:13.519Z,999.13
2023-02-25T04:15:13.505Z,999.01
2023-02-25T04:16:13.592Z,999.04
2023-02-25T04:17:13.492Z,999.03
2023-02-25T04:18:13.491Z,999.07
2023-02-25T04:19:13.470Z,999.05
2023-02-25T04:20:13.469Z,999.04
2023-02-25T04:21:13.441Z,999.10
2023-02-25T04:22:13.429Z,999.11
2023-02-25T04:23:13.430Z,999.10
2023-02-25T04:24:13.432Z,999.09
2023-02-25T04:25:13.408Z,999.14
2023-02-25T04:26:13.397Z,999.21
2023-02-25T04:27:13.372Z,999.24
2023-02-25T04:28:13.377Z,999.21
2023-02-25T04:29:13.369Z,999.17
2023-02-25T04:30:13.345Z,999.22
2023-02-25T04:31:13.431Z,999.20
2023-02-25T04:32:13.481Z,999.24
2023-02-25T04:33:13.309Z,999.22
2023-02-25T04:34:13.416Z,999.22
2023-02-25T04:35:13.291Z,999.25
2023-02-25T04:36:13.284Z,999.25
2023-02-25T04:37:13.267Z,999.31
2023-02-25T04:38:13.262Z,999.27
2023-02-25T04:39:13.256Z,999.23
2023-02-25T04:40:13.255Z,999.26
2023-02-25T04:41:13.235Z,999.28
2023-02-25T04:42:13.212Z,999.26
2023-02-25T04:43:13.200Z,999.26
2023-02-25T04:44:13.188Z,999.30
2023-02-25T04:45:13.182Z,999.23
2023-02-25T04:46:13.216Z,999.27
2023-02-25T04:47:13.154Z,999.25
2023-02-25T04:48:13.157Z,999.28
2023-02-25T04:49:13.128Z,999.29
2023-02-25T04:50:13.134Z,999.31
2023-02-25T04:51:13.115Z,999.27
2023-02-25T04:52:13.100Z,999.19
2023-02-25T04:53:13.091Z,999.25
2023-02-25T04:54:13.083Z,999.22
2023-02-25T04:55:13.075Z,999.26
2023-02-25T04:56:13.079Z,999.26
2023-02-25T04:57:13.053Z,999.25
2023-02-25T04:58:13.033Z,999.24
2023-02-25T04:59:13.022Z,999.25
2023-02-25T05:00:13.011Z,999.18
2023-02-25T05:01:13.024Z,999.22
2023-02-25T05:02:12.988Z,999.24
2023-02-25T05:03:12.978Z,999.25
2023-02-25T05:04:12.966Z,999.25
2023-02-25T05:05:13.054Z,999.23
2023-02-25T05:06:12.950Z,999.26
2023-02-25T05:07:12.949Z,999.27
2023-02-25T05:08:12.929Z,999.25
2023-02-25T05:09:12.920Z,999.27
2023-02-25T05:10:12.904Z,999.26
2023-02-25T05:11:12.894Z,999.25
2023-02-25T05:12:12.901Z,999.17
2023-02-25T05:13:12.876Z,999.20
2023-02-25T05:14:12.866Z,999.18
2023-02-25T05:15:12.870Z,999.17
2023-02-25T05:16:12.893Z,999.26
2023-02-25T05:17:12.851Z,999.22
2023-02-25T05:18:12.849Z,999.26
2023-02-25T05:19:12.812Z,999.20
2023-02-25T05:20:13.100Z,999.24
2023-02-25T05:21:12.820Z,999.24
2023-02-25T05:22:12.770Z,999.19
2023-02-25T05:23:12.763Z,999.17
2023-02-25T05:24:12.770Z,999.22
2023-02-25T05:25:12.750Z,999.25
2023-02-25T05:26:12.736Z,999.21
2023-02-25T05:27:12.730Z,999.27
2023-02-25T05:28:12.727Z,999.33
2023-02-25T05:29:12.726Z,999.26
2023-02-25T05:30:12.685Z,999.34
2023-02-25T05:31:12.877Z,999.29
2023-02-25T05:32:12.875Z,999.28
2023-02-25T05:33:12.649Z,999.32
2023-02-25T05:34:12.648Z,999.36
2023-02-25T05:35:12.633Z,999.35
2023-02-25T05:36:12.619Z,999.42
2023-02-25T05:37:12.613Z,999.46
2023-02-25T05:38:12.603Z,999.42
2023-02-25T05:39:12.600Z,999.39
2023-02-25T05:40:12.568Z,999.42
2023-02-25T05:41:12.561Z,999.41
2023-02-25T05:42:12.569Z,999.47
2023-02-25T05:43:12.538Z,999.49
2023-02-25T05:44:12.546Z,999.44
2023-02-25T05:45:12.533Z,999.50
2023-02-25T05:46:12.505Z,999.51
2023-02-25T05:47:12.541Z,999.51
2023-02-25T05:48:12.496Z,999.46
2023-02-25T05:49:12.473Z,999.51
2023-02-25T05:50:12.467Z,999.51
2023-02-25T05:51:12.454Z,999.51
2023-02-25T05:52:12.442Z,999.56
2023-02-25T05:53:12.429Z,999.59
2023-02-25T05:54:12.414Z,999.53
2023-02-25T05:55:12.403Z,999.52
2023-02-25T05:56:12.403Z,999.55
2023-02-25T05:57:12.397Z,999.52
2023-02-25T05:58:12.383Z,999.62
2023-02-25T05:59:12.357Z,999.52
2023-02-25T06:00:12.373Z,999.61
2023-02-25T06:01:12.334Z,999.56
2023-02-25T06:02:12.421Z,999.54
2023-02-25T06:03:12.361Z,999.55
2023-02-25T06:04:12.318Z,999.58
2023-02-25T06:05:12.298Z,999.57
2023-02-25T06:06:12.282Z,999.63
2023-02-25T06:07:12.265Z,999.70
2023-02-25T06:08:12.296Z,999.73
2023-02-25T06:09:12.245Z,999.79
2023-02-25T06:10:12.241Z,999.75
2023-02-25T06:11:12.225Z,999.75
2023-02-25T06:12:12.230Z,999.68
2023-02-25T06:13:12.216Z,999.69
2023-02-25T06:14:12.190Z,999.62
2023-02-25T06:15:12.181Z,999.74
2023-02-25T06:16:12.361Z,999.71
2023-02-25T06:17:12.159Z,999.68
2023-02-25T06:18:19.271Z,999.67
2023-02-25T06:19:12.145Z,999.68
2023-02-25T06:20:12.125Z,999.75
2023-02-25T06:21:12.127Z,999.73
2023-02-25T06:22:12.118Z,999.76
2023-02-25T06:23:12.102Z,999.85
2023-02-25T06:24:12.089Z,999.82
2023-02-25T06:25:12.073Z,999.85
2023-02-25T06:26:12.067Z,999.90
2023-02-25T06:27:12.073Z,1000.02
2023-02-25T06:28:12.047Z,1000.01
2023-02-25T06:29:12.026Z,1000.01
2023-02-25T06:30:12.025Z,1000.10
2023-02-25T06:31:12.079Z,1000.17
2023-02-25T06:32:12.243Z,1000.15
2023-02-25T06:33:11.985Z,1000.18
2023-02-25T06:34:11.969Z,1000.16
2023-02-25T06:35:11.958Z,1000.22
2023-02-25T06:36:11.951Z,1000.21
2023-02-25T06:37:11.937Z,1000.18
2023-02-25T06:38:11.956Z,1000.22
2023-02-25T06:39:11.915Z,1000.16
2023-02-25T06:40:11.902Z,1000.15
2023-02-25T06:41:11.892Z,1000.15
2023-02-25T06:42:11.880Z,1000.20
2023-02-25T06:43:11.877Z,1000.23
2023-02-25T06:44:12.591Z,1000.23
2023-02-25T06:45:11.854Z,1000.21
2023-02-25T06:46:11.920Z,1000.18
2023-02-25T06:47:11.840Z,1000.13
2023-02-25T06:48:11.832Z,1000.19
2023-02-25T06:49:11.847Z,1000.20
2023-02-25T06:50:11.804Z,1000.25
2023-02-25T06:51:11.786Z,1000.23
2023-02-25T06:52:11.772Z,1000.22
2023-02-25T06:53:11.768Z,1000.18
2023-02-25T06:54:11.783Z,1000.23
2023-02-25T06:55:11.749Z,1000.21
2023-02-25T06:56:11.741Z,1000.29
2023-02-25T06:57:11.730Z,1000.26
2023-02-25T06:58:12.026Z,1000.27
2023-02-25T06:59:11.694Z,1000.27
2023-02-25T07:00:11.691Z,1000.34
2023-02-25T07:01:11.731Z,1000.34
2023-02-25T07:02:11.686Z,1000.39
2023-02-25T07:03:11.750Z,1000.38
2023-02-25T07:04:11.797Z,1000.38
2023-02-25T07:05:11.650Z,1000.43
2023-02-25T07:06:11.630Z,1000.41
2023-02-25T07:07:11.606Z,1000.46
2023-02-25T07:08:11.634Z,1000.48
2023-02-25T07:09:11.585Z,1000.45
2023-02-25T07:10:11.571Z,1000.53
2023-02-25T07:11:13.415Z,1000.50
2023-02-25T07:12:11.547Z,1000.56
2023-02-25T07:13:11.541Z,1000.58
2023-02-25T07:14:11.549Z,1000.54
2023-02-25T07:15:11.520Z,1000.52
2023-02-25T07:16:11.606Z,1000.58
2023-02-25T07:17:11.493Z,1000.58
2023-02-25T07:18:11.477Z,1000.69
2023-02-25T07:19:11.488Z,1000.68
2023-02-25T07:20:11.480Z,1000.70
2023-02-25T07:21:11.458Z,1000.76
2023-02-25T07:22:11.436Z,1000.83
2023-02-25T07:23:11.428Z,1000.72
2023-02-25T07:24:11.412Z,1000.73
2023-02-25T07:25:11.458Z,1000.77
2023-02-25T07:26:11.397Z,1000.81
2023-02-25T07:27:11.391Z,1000.77
2023-02-25T07:28:11.367Z,1000.80
2023-02-25T07:29:11.374Z,1000.92
2023-02-25T07:30:11.350Z,1000.87
2023-02-25T07:31:11.541Z,1000.90
2023-02-25T07:32:11.555Z,1000.81
2023-02-25T07:33:11.408Z,1000.94
2023-02-25T07:34:11.318Z,1000.92
2023-02-25T07:35:11.321Z,1000.90
2023-02-25T07:36:11.309Z,1000.92
2023-02-25T07:37:11.294Z,1000.99
2023-02-25T07:38:11.258Z,1001.00
2023-02-25T07:39:11.280Z,1001.04
2023-02-25T07:40:11.257Z,1001.08
2023-02-25T07:41:11.232Z,1001.17
2023-02-25T07:42:11.216Z,1001.13
2023-02-25T07:43:11.222Z,1001.12
2023-02-25T07:44:11.226Z,1001.14
2023-02-25T07:45:11.199Z,1001.15
2023-02-25T07:46:11.258Z,1001.22
2023-02-25T07:47:11.183Z,1001.25
2023-02-25T07:48:11.167Z,1001.25
2023-02-25T07:49:11.148Z,1001.29
2023-02-25T07:50:12.897Z,1001.07
2023-02-25T07:51:11.125Z,1001.16
2023-02-25T07:52:11.137Z,1001.08
2023-02-25T07:53:11.145Z,1001.16
2023-02-25T07:54:11.114Z,1001.17
2023-02-25T07:55:11.090Z,1001.17
2023-02-25T07:56:11.091Z,1001.17
2023-02-25T07:57:11.055Z,1001.18
2023-02-25T07:58:11.068Z,1001.22
2023-02-25T07:59:11.043Z,1001.19
2023-02-25T08:00:11.050Z,1001.19
2023-02-25T08:01:11.030Z,1001.19
2023-02-25T08:02:11.051Z,1001.22
2023-02-25T08:03:10.990Z,1001.31
2023-02-25T08:04:11.132Z,1001.33
2023-02-25T08:05:10.969Z,1001.36
2023-02-25T08:06:10.970Z,1001.36
2023-02-25T08:07:10.966Z,1001.30
2023-02-25T08:08:10.952Z,1001.38
2023-02-25T08:09:10.947Z,1001.26
2023-02-25T08:10:10.909Z,1001.22
2023-02-25T08:11:10.914Z,1001.18
2023-02-25T08:12:10.916Z,1001.20
2023-02-25T08:13:10.893Z,1001.24
2023-02-25T08:14:10.880Z,1001.25
2023-02-25T08:15:10.861Z,1001.29
2023-02-25T08:16:10.897Z,1001.29
2023-02-25T08:17:10.851Z,1001.40
2023-02-25T08:18:10.835Z,1001.37
2023-02-25T08:19:10.824Z,1001.40
2023-02-25T08:20:10.808Z,1001.37
2023-02-25T08:21:10.791Z,1001.36
2023-02-25T08:22:10.792Z,1001.41
2023-02-25T08:23:10.769Z,1001.45
2023-02-25T08:24:10.789Z,1001.38
2023-02-25T08:25:10.749Z,1001.40
2023-02-25T08:26:10.733Z,1001.46
2023-02-25T08:27:10.770Z,1001.52
2023-02-25T08:28:10.711Z,1001.53
2023-02-25T08:29:10.707Z,1001.53
2023-02-25T08:30:10.705Z,1001.51
2023-02-25T08:31:10.769Z,1001.52
2023-02-25T08:32:10.818Z,1001.44
2023-02-25T08:33:10.682Z,1001.45
2023-02-25T08:34:10.672Z,1001.49
2023-02-25T08:35:10.644Z,1001.48
2023-02-25T08:36:10.634Z,1001.45
2023-02-25T08:37:10.623Z,1001.57
2023-02-25T08:38:10.610Z,1001.57
2023-02-25T08:39:10.609Z,1001.60
2023-02-25T08:40:10.653Z,1001.69
2023-02-25T08:41:10.581Z,1001.71
2023-02-25T08:42:10.581Z,1001.87
2023-02-25T08:43:10.559Z,1001.86
2023-02-25T08:44:10.532Z,1001.82
2023-02-25T08:45:10.535Z,1001.78
2023-02-25T08:46:10.505Z,1001.74
2023-02-25T08:47:10.505Z,1001.65
2023-02-25T08:48:10.488Z,1001.72
2023-02-25T08:49:10.482Z,1001.67
2023-02-25T08:50:10.479Z,1001.80
2023-02-25T08:51:10.459Z,1001.85
2023-02-25T08:52:10.445Z,1001.83
2023-02-25T08:53:10.489Z,1001.87
2023-02-25T08:54:10.436Z,1001.84
2023-02-25T08:55:10.416Z,1001.91
2023-02-25T08:56:10.444Z,1001.90
2023-02-25T08:57:10.386Z,1001.94
2023-02-25T08:58:10.399Z,1001.97
2023-02-25T08:59:10.379Z,1001.93
2023-02-25T09:00:10.354Z,1001.92
2023-02-25T09:01:10.429Z,1001.98
2023-02-25T09:02:10.338Z,1001.98
2023-02-25T09:03:10.326Z,1001.98
2023-02-25T09:04:10.380Z,1002.02
2023-02-25T09:05:10.316Z,1002.05
2023-02-25T09:06:10.302Z,1002.04
2023-02-25T09:07:10.272Z,1002.02
2023-02-25T09:08:10.276Z,1002.10
2023-02-25T09:09:10.253Z,1002.13
2023-02-25T09:10:10.299Z,1002.21
2023-02-25T09:11:10.227Z,1002.27
2023-02-25T09:12:10.245Z,1002.24
2023-02-25T09:13:10.205Z,1002.26
2023-02-25T09:14:10.192Z,1002.30
2023-02-25T09:15:10.192Z,1002.34
2023-02-25T09:16:10.216Z,1002.29
2023-02-25T09:17:10.168Z,1002.28
2023-02-25T09:18:10.155Z,1002.28
2023-02-25T09:19:10.140Z,1002.22
2023-02-25T09:20:10.131Z,1002.26
2023-02-25T09:21:10.131Z,1002.22
2023-02-25T09:22:10.155Z,1002.20
2023-02-25T09:23:10.094Z,1002.23
2023-02-25T09:24:10.117Z,1002.28
2023-02-25T09:25:10.079Z,1002.25
2023-02-25T09:26:10.087Z,1002.30
2023-02-25T09:27:10.054Z,1002.28
2023-02-25T09:28:10.087Z,1002.27
2023-02-25T09:29:10.037Z,1002.30
2023-02-25T09:30:10.026Z,1002.36
2023-02-25T09:31:10.109Z,1002.33
2023-02-25T09:32:10.104Z,1002.36
2023-02-25T09:33:10.253Z,1002.45
2023-02-25T09:34:10.005Z,1002.51
2023-02-25T09:35:09.962Z,1002.50
2023-02-25T09:36:09.959Z,1002.51
2023-02-25T09:37:09.949Z,1002.53
2023-02-25T09:38:09.972Z,1002.51
2023-02-25T09:39:09.941Z,1002.48
2023-02-25T09:40:09.911Z,1002.44
2023-02-25T09:41:09.901Z,1002.42
2023-02-25T09:42:09.890Z,1002.46
2023-02-25T09:43:09.880Z,1002.38
2023-02-25T09:44:09.907Z,1002.44
2023-02-25T09:45:09.875Z,1002.44
2023-02-25T09:46:09.870Z,1002.56
2023-02-25T09:47:09.837Z,1002.47
2023-02-25T09:48:09.823Z,1002.51
2023-02-25T09:49:09.808Z,1002.53
2023-02-25T09:50:09.810Z,1002.55
2023-02-25T09:51:09.796Z,1002.61
2023-02-25T09:52:09.773Z,1002.53
2023-02-25T09:53:09.761Z,1002.56
2023-02-25T09:54:09.762Z,1002.55
2023-02-25T09:55:09.766Z,1002.58
2023-02-25T09:56:09.741Z,1002.59
2023-02-25T09:57:09.715Z,1002.66
2023-02-25T09:58:09.709Z,1002.60
2023-02-25T09:59:09.700Z,1002.56
2023-02-25T10:00:09.715Z,1002.64
2023-02-25T10:01:09.681Z,1002.69
2023-02-25T10:02:09.774Z,1002.68
2023-02-25T10:03:09.811Z,1002.63
2023-02-25T10:04:09.643Z,1002.65
2023-02-25T10:05:09.647Z,1002.69
2023-02-25T10:06:09.638Z,1002.63
2023-02-25T10:07:09.612Z,1002.61
2023-02-25T10:08:09.624Z,1002.66
2023-02-25T10:09:09.595Z,1002.63
2023-02-25T10:10:09.576Z,1002.65
2023-02-25T10:11:09.585Z,1002.65
2023-02-25T10:12:09.555Z,1002.63
2023-02-25T10:13:09.553Z,1002.62
2023-02-25T10:14:09.549Z,1002.76
2023-02-25T10:15:09.519Z,1002.87
2023-02-25T10:16:09.530Z,1002.95
2023-02-25T10:17:09.509Z,1002.89
2023-02-25T10:18:09.489Z,1002.70
2023-02-25T10:19:09.478Z,1002.80
2023-02-25T10:20:09.513Z,1002.86
2023-02-25T10:21:09.482Z,1002.93
2023-02-25T10:22:09.475Z,1002.86
2023-02-25T10:23:09.434Z,1002.93
2023-02-25T10:24:09.423Z,1003.01
2023-02-25T10:25:09.417Z,1002.88
2023-02-25T10:26:09.410Z,1002.96
2023-02-25T10:27:09.409Z,1002.91
2023-02-25T10:28:09.393Z,1002.99
2023-02-25T10:29:09.365Z,1003.01
2023-02-25T10:30:09.355Z,1002.97
2023-02-25T10:31:09.484Z,1003.10
2023-02-25T10:32:09.636Z,1003.04
2023-02-25T10:33:09.341Z,1003.01
2023-02-25T10:34:09.332Z,1003.14
2023-02-25T10:35:09.300Z,1003.14
2023-02-25T10:36:09.289Z,1003.21
2023-02-25T10:37:09.276Z,1003.18
2023-02-25T10:38:09.276Z,1003.20
2023-02-25T10:39:09.276Z,1003.22
2023-02-25T10:40:09.247Z,1003.26
2023-02-25T10:41:09.233Z,1003.16
2023-02-25T10:42:09.223Z,1003.19
2023-02-25T10:43:09.207Z,1003.21
2023-02-25T10:44:09.207Z,1003.25
2023-02-25T10:45:09.228Z,1003.27
2023-02-25T10:46:09.208Z,1003.34
2023-02-25T10:47:09.168Z,1003.36
2023-02-25T10:48:09.173Z,1003.37
2023-02-25T10:49:15.771Z,1003.36
2023-02-25T10:50:10.149Z,1003.25
2023-02-25T10:51:09.130Z,1003.38
2023-02-25T10:52:09.113Z,1003.30
2023-02-25T10:53:09.098Z,1003.31
2023-02-25T10:54:09.122Z,1003.39
2023-02-25T10:55:09.086Z,1003.33
2023-02-25T10:56:09.073Z,1003.35
2023-02-25T10:57:09.067Z,1003.41
2023-02-25T10:58:09.040Z,1003.40
2023-02-25T10:59:09.034Z,1003.35
2023-02-25T11:00:09.017Z,1003.30
2023-02-25T11:01:09.066Z,1003.30
2023-02-25T11:02:09.030Z,1003.29
2023-02-25T11:03:08.997Z,1003.36
2023-02-25T11:04:08.994Z,1003.22
2023-02-25T11:05:08.960Z,1003.42
2023-02-25T11:06:08.951Z,1003.44
2023-02-25T11:07:08.944Z,1003.28
2023-02-25T11:08:08.928Z,1003.43
2023-02-25T11:09:08.922Z,1003.39
2023-02-25T11:10:08.904Z,1003.42
2023-02-25T11:11:08.904Z,1003.49
2023-02-25T11:12:08.902Z,1003.40
2023-02-25T11:13:08.869Z,1003.46
2023-02-25T11:14:08.860Z,1003.42
2023-02-25T11:15:08.861Z,1003.33
2023-02-25T11:16:08.930Z,1003.50
2023-02-25T11:17:08.830Z,1003.46
2023-02-25T11:18:08.814Z,1003.46
2023-02-25T11:19:08.800Z,1003.46
2023-02-25T11:20:08.811Z,1003.57
2023-02-25T11:21:08.811Z,1003.56
2023-02-25T11:22:08.784Z,1003.42
2023-02-25T11:23:08.758Z,1003.46
2023-02-25T11:24:08.745Z,1003.37
2023-02-25T11:25:08.738Z,1003.54
2023-02-25T11:26:08.724Z,1003.56
2023-02-25T11:27:08.721Z,1003.57
2023-02-25T11:28:08.707Z,1003.59
2023-02-25T11:29:08.683Z,1003.71
2023-02-25T11:30:08.676Z,1003.64
2023-02-25T11:31:08.729Z,1003.46
2023-02-25T11:32:08.806Z,1003.61
2023-02-25T11:33:08.939Z,1003.69
2023-02-25T11:34:08.635Z,1003.73
2023-02-25T11:35:08.640Z,1003.65
2023-02-25T11:36:08.664Z,1003.74
2023-02-25T11:37:09.433Z,1003.62
2023-02-25T11:38:08.583Z,1003.71
2023-02-25T11:39:08.589Z,1003.76
2023-02-25T11:40:08.563Z,1003.69
2023-02-25T11:41:08.549Z,1003.64
2023-02-25T11:42:08.560Z,1003.64
2023-02-25T11:43:08.526Z,1003.68
2023-02-25T11:44:08.520Z,1003.72
2023-02-25T11:45:08.523Z,1003.61
2023-02-25T11:46:08.553Z,1003.64
2023-02-25T11:47:08.506Z,1003.68
2023-02-25T11:48:08.477Z,1003.75
2023-02-25T11:49:08.463Z,1003.70
2023-02-25T11:50:08.448Z,1003.68
2023-02-25T11:51:08.442Z,1003.71
2023-02-25T11:52:08.444Z,1003.63
2023-02-25T11:53:08.416Z,1003.73
2023-02-25T11:54:08.424Z,1003.79
2023-02-25T11:55:09.048Z,1003.80
2023-02-25T11:56:08.397Z,1003.64
2023-02-25T11:57:08.383Z,1003.76
2023-02-25T11:58:08.355Z,1003.75
2023-02-25T11:59:08.341Z,1003.74
2023-02-25T12:00:08.334Z,1003.70
2023-02-25T12:01:08.327Z,1003.76
2023-02-25T12:02:08.332Z,1003.67
2023-02-25T12:03:08.373Z,1003.70
2023-02-25T12:04:08.286Z,1003.74
2023-02-25T12:05:08.276Z,1003.76
2023-02-25T12:06:08.278Z,1003.76
2023-02-25T12:07:08.270Z,1003.69
2023-02-25T12:08:14.520Z,1003.85
2023-02-25T12:09:09.243Z,1003.80
2023-02-25T12:10:08.217Z,1003.84
2023-02-25T12:11:08.205Z,1003.85
2023-02-25T12:12:08.198Z,1003.85
2023-02-25T12:13:08.184Z,1003.85
2023-02-25T12:14:08.179Z,1003.87
2023-02-25T12:15:08.179Z,1003.94
2023-02-25T12:16:08.277Z,1003.95
2023-02-25T12:17:08.141Z,1003.90